Terminal Aerodrome Forecast
Issued by NWS Wilmington, NC

Home | Current Version | Previous Version | Text Only | Print | Product List | Glossary On
Versions: 1 2 3 4 5 6 7 8 9 10 11 12 13 14 15
921
FTUS42 KILM 011722
TAFLBT
TAF
KLBT 011722Z 0118/0218 23016G30KT P6SM BKN040 BKN050
     FM020400 22014KT 6SM -SHRA VCTS BKN040CB PROB30 0205/0209 4SM
      -TSRA OVC025CB
     FM020900 27011KT 6SM -SHRA VCTS BKN025CB
     FM021200 33010KT P6SM BKN050
     FM021400 34011KT P6SM SCT250=

USA.gov is the U.S. government's official web portal to all federal, state and local government web resources and services.